createdAt,value
2018-09-17T00:00:10.994Z,1.10
2018-09-17T00:01:11.004Z,1.00
2018-09-17T00:02:11.031Z,1.00
2018-09-17T00:03:10.983Z,1.00
2018-09-17T00:04:11.254Z,1.10
2018-09-17T00:05:10.951Z,0.90
2018-09-17T00:06:10.924Z,1.10
2018-09-17T00:07:10.920Z,1.00
2018-09-17T00:08:10.927Z,1.30
2018-09-17T00:09:10.915Z,1.00
2018-09-17T00:10:10.903Z,1.10
2018-09-17T00:11:10.880Z,1.00
2018-09-17T00:12:10.876Z,1.00
2018-09-17T00:13:10.877Z,1.20
2018-09-17T00:14:10.863Z,0.90
2018-09-17T00:15:11.095Z,1.00
2018-09-17T00:16:10.822Z,1.00
2018-09-17T00:17:10.824Z,1.00
2018-09-17T00:18:10.804Z,1.00
2018-09-17T00:19:10.804Z,1.10
2018-09-17T00:20:10.822Z,0.90
2018-09-17T00:21:11.075Z,1.20
2018-09-17T00:22:10.776Z,1.10
2018-09-17T00:23:10.739Z,1.40
2018-09-17T00:24:10.733Z,1.10
2018-09-17T00:25:10.744Z,1.00
2018-09-17T00:26:10.718Z,1.00
2018-09-17T00:27:10.704Z,1.20
2018-09-17T00:28:10.695Z,1.00
2018-09-17T00:29:10.690Z,1.20
2018-09-17T00:30:10.715Z,1.50
2018-09-17T00:31:10.651Z,1.50
2018-09-17T00:32:10.961Z,1.60
2018-09-17T00:33:10.644Z,2.00
2018-09-17T00:34:10.640Z,1.70
2018-09-17T00:35:10.644Z,1.70
2018-09-17T00:36:10.616Z,1.60
2018-09-17T00:37:10.592Z,1.70
2018-09-17T00:38:10.725Z,1.30
2018-09-17T00:39:10.581Z,1.10
2018-09-17T00:40:10.570Z,1.00
2018-09-17T00:41:10.555Z,1.00
2018-09-17T00:42:10.553Z,1.00
2018-09-17T00:43:10.561Z,1.10
2018-09-17T00:44:10.539Z,1.10
2018-09-17T00:45:10.541Z,1.10
2018-09-17T00:46:10.492Z,1.10
2018-09-17T00:47:10.501Z,1.10
2018-09-17T00:48:10.792Z,1.00
2018-09-17T00:49:10.466Z,1.10
2018-09-17T00:50:10.453Z,1.10
2018-09-17T00:51:10.460Z,1.50
2018-09-17T00:52:10.438Z,1.40
2018-09-17T00:53:10.433Z,1.40
2018-09-17T00:54:10.702Z,1.30
2018-09-17T00:55:10.417Z,1.10
2018-09-17T00:56:10.385Z,1.20
2018-09-17T00:57:10.417Z,1.10
2018-09-17T00:58:10.364Z,1.30
2018-09-17T00:59:10.366Z,1.30
2018-09-17T01:00:10.347Z,1.30
2018-09-17T01:01:10.327Z,1.20
2018-09-17T01:02:10.317Z,1.20
2018-09-17T01:03:10.308Z,1.40
2018-09-17T01:04:10.292Z,1.20
2018-09-17T01:05:10.294Z,1.20
2018-09-17T01:06:10.286Z,1.30
2018-09-17T01:07:10.276Z,1.20
2018-09-17T01:08:10.240Z,1.00
2018-09-17T01:09:10.237Z,1.20
2018-09-17T01:10:10.242Z,1.20
2018-09-17T01:11:10.218Z,1.20
2018-09-17T01:12:10.228Z,1.20
2018-09-17T01:13:10.233Z,1.30
2018-09-17T01:14:10.164Z,1.50
2018-09-17T01:15:10.437Z,1.30
2018-09-17T01:16:10.195Z,1.50
2018-09-17T01:17:10.164Z,1.30
2018-09-17T01:18:10.127Z,1.40
2018-09-17T01:19:10.119Z,1.20
2018-09-17T01:20:10.107Z,1.30
2018-09-17T01:21:10.085Z,1.10
2018-09-17T01:22:10.094Z,1.00
2018-09-17T01:23:10.082Z,1.20
2018-09-17T01:24:10.042Z,1.20
2018-09-17T01:25:10.050Z,1.20
2018-09-17T01:26:10.049Z,1.40
2018-09-17T01:27:10.039Z,1.40
2018-09-17T01:28:10.026Z,1.20
2018-09-17T01:29:09.997Z,1.30
2018-09-17T01:30:10.001Z,1.30
2018-09-17T01:31:09.976Z,1.10
2018-09-17T01:32:09.962Z,1.30
2018-09-17T01:33:09.970Z,1.20
2018-09-17T01:34:09.930Z,1.10
2018-09-17T01:35:09.979Z,1.10
2018-09-17T01:36:10.015Z,1.20
2018-09-17T01:37:09.954Z,1.00
2018-09-17T01:38:09.896Z,1.30
2018-09-17T01:39:09.869Z,1.10
2018-09-17T01:40:09.879Z,1.30
2018-09-17T01:41:10.128Z,1.10
2018-09-17T01:42:09.866Z,1.00
2018-09-17T01:43:09.840Z,1.20
2018-09-17T01:44:09.866Z,1.50
2018-09-17T01:45:09.809Z,1.30
2018-09-17T01:46:09.839Z,1.40
2018-09-17T01:47:09.813Z,1.20
2018-09-17T01:48:09.775Z,1.00
2018-09-17T01:49:09.778Z,1.30
2018-09-17T01:50:09.769Z,1.10
2018-09-17T01:51:09.765Z,1.30
2018-09-17T01:52:09.721Z,1.20
2018-09-17T01:53:09.777Z,1.20
2018-09-17T01:54:09.722Z,1.30
2018-09-17T01:55:09.725Z,1.40
2018-09-17T01:56:09.712Z,1.10
2018-09-17T01:57:09.716Z,1.30
2018-09-17T01:58:09.676Z,1.20
2018-09-17T01:59:09.688Z,1.40
2018-09-17T02:00:09.648Z,1.20
2018-09-17T02:01:09.640Z,1.20
2018-09-17T02:02:09.639Z,1.10
2018-09-17T02:03:09.738Z,1.20
2018-09-17T02:04:09.595Z,1.20
2018-09-17T02:05:09.609Z,1.30
2018-09-17T02:06:09.581Z,1.20
2018-09-17T02:07:09.578Z,1.20
2018-09-17T02:08:09.640Z,1.20
2018-09-17T02:09:09.912Z,1.20
2018-09-17T02:10:09.529Z,1.30
2018-09-17T02:11:09.534Z,1.20
2018-09-17T02:12:09.529Z,1.10
2018-09-17T02:13:09.493Z,1.10
2018-09-17T02:14:09.504Z,1.10
2018-09-17T02:15:09.795Z,1.00
2018-09-17T02:16:09.477Z,1.20
2018-09-17T02:17:09.458Z,1.20
2018-09-17T02:18:09.483Z,1.20
2018-09-17T02:19:09.460Z,1.00
2018-09-17T02:20:09.441Z,1.00
2018-09-17T02:21:09.736Z,0.90
2018-09-17T02:22:09.446Z,1.00
2018-09-17T02:23:09.406Z,1.00
2018-09-17T02:24:09.397Z,1.10
2018-09-17T02:25:09.375Z,1.00
2018-09-17T02:26:09.366Z,1.10
2018-09-17T02:27:09.355Z,1.00
2018-09-17T02:28:09.341Z,1.10
2018-09-17T02:29:09.332Z,1.00
2018-09-17T02:30:09.328Z,1.10
2018-09-17T02:31:09.294Z,0.90
2018-09-17T02:32:09.304Z,1.10
2018-09-17T02:33:09.265Z,1.20
2018-09-17T02:34:09.309Z,1.00
2018-09-17T02:35:09.251Z,1.10
2018-09-17T02:36:09.252Z,1.20
2018-09-17T02:37:09.279Z,1.10
2018-09-17T02:38:09.228Z,1.00
2018-09-17T02:39:09.217Z,1.10
2018-09-17T02:40:09.206Z,0.90
2018-09-17T02:41:09.188Z,1.10
2018-09-17T02:42:09.187Z,1.00
2018-09-17T02:43:09.170Z,1.10
2018-09-17T02:44:09.171Z,0.90
2018-09-17T02:45:09.154Z,1.10
2018-09-17T02:46:09.149Z,1.00
2018-09-17T02:47:09.231Z,1.00
2018-09-17T02:48:09.109Z,1.10
2018-09-17T02:49:09.120Z,1.00
2018-09-17T02:50:09.094Z,1.00
2018-09-17T02:51:09.081Z,1.00
2018-09-17T02:52:09.088Z,1.00
2018-09-17T02:53:09.063Z,1.00
2018-09-17T02:54:09.052Z,1.10
2018-09-17T02:55:09.040Z,1.00
2018-09-17T02:56:09.006Z,1.10
2018-09-17T02:57:08.989Z,1.10
2018-09-17T02:58:09.297Z,1.00
2018-09-17T02:59:09.013Z,1.20
2018-09-17T03:00:08.965Z,1.00
2018-09-17T03:01:08.979Z,1.20
2018-09-17T03:02:08.996Z,1.00
2018-09-17T03:03:08.941Z,1.00
2018-09-17T03:04:08.917Z,1.10
2018-09-17T03:05:08.925Z,1.10
2018-09-17T03:06:08.956Z,0.90
2018-09-17T03:07:08.914Z,1.20
2018-09-17T03:08:08.881Z,1.10
2018-09-17T03:09:08.879Z,1.10
2018-09-17T03:10:08.877Z,1.00
2018-09-17T03:11:08.831Z,1.00
2018-09-17T03:12:08.877Z,1.30
2018-09-17T03:13:08.823Z,0.90
2018-09-17T03:14:08.860Z,1.00
2018-09-17T03:15:08.807Z,1.20
2018-09-17T03:16:08.803Z,1.00
2018-09-17T03:17:08.783Z,1.20
2018-09-17T03:18:08.769Z,1.10
2018-09-17T03:19:09.020Z,1.30
2018-09-17T03:20:08.735Z,1.20
2018-09-17T03:21:08.734Z,1.60
2018-09-17T03:22:08.755Z,1.70
2018-09-17T03:23:08.698Z,1.50
2018-09-17T03:24:08.705Z,1.40
2018-09-17T03:25:08.691Z,1.40
2018-09-17T03:26:08.685Z,1.60
2018-09-17T03:27:08.665Z,1.40
2018-09-17T03:28:08.663Z,1.50
2018-09-17T03:29:08.649Z,1.60
2018-09-17T03:30:08.943Z,1.60
2018-09-17T03:31:08.673Z,1.50
2018-09-17T03:32:08.647Z,1.40
2018-09-17T03:33:08.616Z,1.30
2018-09-17T03:34:08.574Z,1.50
2018-09-17T03:35:08.565Z,1.40
2018-09-17T03:36:08.571Z,1.40
2018-09-17T03:37:08.572Z,1.40
2018-09-17T03:38:08.543Z,1.60
2018-09-17T03:39:08.542Z,1.60
2018-09-17T03:40:08.526Z,1.60
2018-09-17T03:41:08.557Z,1.40
2018-09-17T03:42:08.492Z,1.70
2018-09-17T03:43:08.484Z,1.60
2018-09-17T03:44:08.483Z,1.80
2018-09-17T03:45:08.465Z,1.70
2018-09-17T03:46:08.577Z,1.50
2018-09-17T03:47:08.448Z,1.70
2018-09-17T03:48:08.418Z,1.70
2018-09-17T03:49:08.431Z,1.90
2018-09-17T03:50:08.414Z,1.60
2018-09-17T03:51:08.436Z,1.90
2018-09-17T03:52:08.484Z,1.70
2018-09-17T03:53:08.390Z,1.90
2018-09-17T03:54:08.354Z,1.90
2018-09-17T03:55:08.348Z,1.70
2018-09-17T03:56:08.344Z,1.40
2018-09-17T03:57:08.310Z,1.70
2018-09-17T03:58:08.574Z,1.60
2018-09-17T03:59:08.310Z,1.60
2018-09-17T04:00:08.298Z,1.60
2018-09-17T04:01:08.323Z,1.70
2018-09-17T04:02:08.264Z,1.50
2018-09-17T04:03:08.267Z,1.60
2018-09-17T04:04:08.289Z,1.70
2018-09-17T04:05:08.270Z,1.70
2018-09-17T04:06:08.227Z,1.60
2018-09-17T04:07:08.204Z,1.60
2018-09-17T04:08:08.209Z,1.60
2018-09-17T04:09:08.431Z,1.70
2018-09-17T04:10:08.182Z,1.80
2018-09-17T04:11:08.149Z,1.70
2018-09-17T04:12:08.169Z,1.70
2018-09-17T04:13:08.138Z,1.80
2018-09-17T04:14:08.126Z,1.60
2018-09-17T04:15:08.369Z,2.00
2018-09-17T04:16:08.117Z,1.80
2018-09-17T04:17:08.082Z,1.90
2018-09-17T04:18:08.120Z,1.70
2018-09-17T04:19:08.079Z,1.80
2018-09-17T04:20:08.172Z,1.70
2018-09-17T04:21:08.052Z,1.90
2018-09-17T04:22:08.030Z,1.80
2018-09-17T04:23:08.003Z,1.70
2018-09-17T04:24:08.012Z,2.00
2018-09-17T04:25:08.008Z,1.80
2018-09-17T04:26:08.083Z,1.50
2018-09-17T04:27:07.975Z,1.70
2018-09-17T04:28:07.981Z,1.70
2018-09-17T04:29:07.977Z,1.50
2018-09-17T04:30:07.944Z,1.80
2018-09-17T04:31:08.242Z,1.50
2018-09-17T04:32:07.966Z,1.60
2018-09-17T04:33:07.968Z,1.60
2018-09-17T04:34:07.896Z,1.80
2018-09-17T04:35:07.889Z,1.70
2018-09-17T04:36:07.896Z,1.50
2018-09-17T04:37:07.965Z,1.90
2018-09-17T04:38:07.856Z,1.90
2018-09-17T04:39:07.843Z,1.70
2018-09-17T04:40:07.829Z,1.90
2018-09-17T04:41:07.816Z,2.10
2018-09-17T04:42:07.802Z,2.30
2018-09-17T04:43:07.784Z,1.70
2018-09-17T04:44:07.784Z,2.00
2018-09-17T04:45:07.776Z,2.30
2018-09-17T04:46:07.777Z,2.20
2018-09-17T04:47:07.758Z,1.80
2018-09-17T04:48:07.845Z,1.80
2018-09-17T04:49:07.738Z,2.00
2018-09-17T04:50:07.698Z,2.00
2018-09-17T04:51:07.724Z,2.00
2018-09-17T04:52:07.705Z,1.90
2018-09-17T04:53:07.700Z,1.80
2018-09-17T04:54:08.079Z,2.20
2018-09-17T04:55:07.668Z,2.10
2018-09-17T04:56:07.642Z,1.90
2018-09-17T04:57:07.646Z,2.00
2018-09-17T04:58:07.644Z,2.00
2018-09-17T04:59:07.627Z,1.80
2018-09-17T05:00:07.844Z,1.80
2018-09-17T05:01:07.570Z,1.90
2018-09-17T05:02:07.579Z,1.60
2018-09-17T05:03:07.592Z,2.00
2018-09-17T05:04:07.553Z,1.70
2018-09-17T05:05:07.534Z,1.70
2018-09-17T05:06:07.548Z,1.70
2018-09-17T05:07:07.611Z,1.60
2018-09-17T05:08:07.524Z,1.60
2018-09-17T05:09:07.546Z,1.40
2018-09-17T05:10:07.497Z,1.40
2018-09-17T05:11:07.581Z,1.80
2018-09-17T05:12:07.455Z,1.70
2018-09-17T05:13:07.544Z,1.60
2018-09-17T05:14:07.442Z,1.70
2018-09-17T05:15:07.444Z,1.60
2018-09-17T05:16:07.705Z,1.80
2018-09-17T05:17:07.409Z,1.50
2018-09-17T05:18:07.415Z,1.70
2018-09-17T05:19:07.370Z,2.00
2018-09-17T05:20:07.388Z,1.60
2018-09-17T05:21:07.363Z,1.90
2018-09-17T05:22:07.495Z,1.70
2018-09-17T05:23:07.360Z,2.20
2018-09-17T05:24:07.330Z,1.90
2018-09-17T05:25:07.318Z,2.30
2018-09-17T05:26:07.327Z,1.80
2018-09-17T05:27:07.546Z,1.80
2018-09-17T05:28:07.337Z,1.90
2018-09-17T05:29:07.286Z,1.70
2018-09-17T05:30:07.250Z,1.70
2018-09-17T05:31:07.255Z,1.70
2018-09-17T05:32:07.534Z,1.50
2018-09-17T05:33:07.265Z,1.60
2018-09-17T05:34:07.203Z,1.60
2018-09-17T05:35:07.203Z,1.70
2018-09-17T05:36:07.211Z,1.60
2018-09-17T05:37:07.326Z,1.60
2018-09-17T05:38:07.164Z,1.80
2018-09-17T05:39:07.152Z,1.70
2018-09-17T05:40:07.143Z,1.60
2018-09-17T05:41:07.140Z,1.60
2018-09-17T05:42:07.361Z,1.70
2018-09-17T05:43:07.095Z,1.60
2018-09-17T05:44:07.112Z,1.70
2018-09-17T05:45:07.086Z,1.60
2018-09-17T05:46:07.072Z,1.70
2018-09-17T05:47:07.167Z,1.70
2018-09-17T05:48:07.058Z,1.70
2018-09-17T05:49:07.030Z,1.40
2018-09-17T05:50:07.036Z,2.00
2018-09-17T05:51:07.009Z,1.70
2018-09-17T05:52:07.363Z,1.80
2018-09-17T05:53:07.011Z,1.80
2018-09-17T05:54:06.999Z,1.70
2018-09-17T05:55:06.952Z,2.00
2018-09-17T05:56:07.011Z,2.00
2018-09-17T05:57:07.536Z,1.80
2018-09-17T05:58:06.943Z,1.70
2018-09-17T05:59:06.971Z,1.90
2018-09-17T06:00:06.927Z,1.80
2018-09-17T06:01:06.899Z,1.80
2018-09-17T06:02:06.874Z,1.60
2018-09-17T06:03:06.948Z,1.40
2018-09-17T06:04:06.885Z,1.50
2018-09-17T06:05:06.853Z,1.50
2018-09-17T06:06:06.896Z,1.50
2018-09-17T06:07:06.919Z,1.50
2018-09-17T06:08:06.832Z,1.50
2018-09-17T06:09:06.821Z,1.50
2018-09-17T06:10:06.773Z,1.50
2018-09-17T06:11:06.821Z,1.60
2018-09-17T06:12:06.773Z,1.50
2018-09-17T06:13:06.777Z,1.50
2018-09-17T06:14:06.740Z,1.70
2018-09-17T06:15:06.781Z,1.70
2018-09-17T06:16:06.732Z,1.90
2018-09-17T06:17:06.721Z,1.80
2018-09-17T06:18:06.712Z,2.20
2018-09-17T06:19:07.034Z,2.00
2018-09-17T06:20:06.672Z,2.20
2018-09-17T06:21:06.718Z,2.30
2018-09-17T06:22:06.662Z,2.30
2018-09-17T06:23:06.648Z,1.90
2018-09-17T06:24:06.636Z,1.80
2018-09-17T06:25:06.650Z,2.20
2018-09-17T06:26:06.604Z,2.10
2018-09-17T06:27:06.595Z,2.00
2018-09-17T06:28:06.596Z,1.80
2018-09-17T06:29:06.596Z,2.10
2018-09-17T06:30:06.611Z,1.80
2018-09-17T06:31:06.607Z,2.00
2018-09-17T06:32:06.541Z,2.30
2018-09-17T06:33:06.517Z,2.00
2018-09-17T06:34:06.503Z,2.20
2018-09-17T06:35:06.519Z,2.30
2018-09-17T06:36:06.507Z,2.10
2018-09-17T06:37:06.482Z,2.10
2018-09-17T06:38:06.485Z,1.90
2018-09-17T06:39:06.436Z,2.10
2018-09-17T06:40:06.739Z,1.90
2018-09-17T06:41:06.418Z,2.80
2018-09-17T06:42:06.448Z,2.50
2018-09-17T06:43:06.404Z,2.40
2018-09-17T06:44:06.386Z,2.50
2018-09-17T06:45:06.685Z,2.80
2018-09-17T06:46:06.386Z,3.00
2018-09-17T06:47:06.365Z,3.00
2018-09-17T06:48:06.345Z,3.00
2018-09-17T06:49:06.335Z,3.10
2018-09-17T06:50:06.435Z,3.60
2018-09-17T06:51:06.332Z,2.90
2018-09-17T06:52:06.311Z,3.00
2018-09-17T06:53:06.306Z,3.00
2018-09-17T06:54:06.289Z,3.20
2018-09-17T06:55:06.267Z,3.40
2018-09-17T06:56:06.369Z,3.70
2018-09-17T06:57:06.254Z,3.40
2018-09-17T06:58:06.247Z,3.50
2018-09-17T06:59:06.268Z,3.00
2018-09-17T07:00:06.205Z,3.10
2018-09-17T07:01:06.522Z,3.00
2018-09-17T07:02:06.173Z,3.10
2018-09-17T07:03:06.179Z,3.10
2018-09-17T07:04:06.164Z,2.90
2018-09-17T07:05:06.158Z,3.20
2018-09-17T07:06:06.307Z,2.80
2018-09-17T07:07:06.122Z,2.30
2018-09-17T07:08:06.110Z,2.70
2018-09-17T07:09:06.122Z,3.10
2018-09-17T07:10:06.106Z,2.80
2018-09-17T07:11:06.335Z,2.70
2018-09-17T07:12:06.061Z,2.80
2018-09-17T07:13:06.060Z,2.70
2018-09-17T07:14:06.060Z,2.60
2018-09-17T07:15:06.036Z,2.60
2018-09-17T07:16:06.334Z,3.40
2018-09-17T07:17:06.016Z,3.10
2018-09-17T07:18:06.027Z,3.20
2018-09-17T07:19:05.977Z,2.80
2018-09-17T07:20:05.959Z,3.00
2018-09-17T07:21:06.092Z,3.20
2018-09-17T07:22:05.971Z,2.80
2018-09-17T07:23:05.968Z,2.20
2018-09-17T07:24:05.930Z,2.80
2018-09-17T07:25:05.924Z,2.60
2018-09-17T07:26:05.931Z,3.00
2018-09-17T07:27:06.178Z,2.50
2018-09-17T07:28:05.899Z,2.60
2018-09-17T07:29:05.890Z,2.70
2018-09-17T07:30:05.872Z,2.90
2018-09-17T07:31:05.844Z,2.70
2018-09-17T07:32:05.849Z,3.00
2018-09-17T07:33:06.119Z,2.70
2018-09-17T07:34:05.828Z,2.90
2018-09-17T07:35:05.819Z,2.90
2018-09-17T07:36:05.803Z,3.00
2018-09-17T07:37:05.786Z,3.20
2018-09-17T07:38:05.760Z,3.30
2018-09-17T07:39:05.755Z,2.80
2018-09-17T07:40:05.749Z,2.70
2018-09-17T07:41:05.740Z,2.40
2018-09-17T07:42:05.775Z,2.90
2018-09-17T07:43:05.721Z,3.40
2018-09-17T07:44:05.708Z,2.80
2018-09-17T07:45:05.685Z,3.50
2018-09-17T07:46:05.646Z,3.50
2018-09-17T07:47:05.675Z,3.30
2018-09-17T07:48:05.673Z,3.10
2018-09-17T07:49:05.641Z,2.90
2018-09-17T07:50:05.637Z,3.60
2018-09-17T07:51:05.605Z,3.40
2018-09-17T07:52:05.613Z,3.10
2018-09-17T07:53:05.604Z,4.30
2018-09-17T07:54:05.832Z,3.40
2018-09-17T07:55:05.576Z,3.90
2018-09-17T07:56:05.548Z,3.00
2018-09-17T07:57:05.540Z,3.20
2018-09-17T07:58:05.568Z,3.50
2018-09-17T07:59:05.778Z,2.80
2018-09-17T08:00:05.516Z,3.90
2018-09-17T08:01:05.538Z,3.50
2018-09-17T08:02:05.499Z,4.00
2018-09-17T08:03:05.459Z,3.40
2018-09-17T08:04:05.460Z,3.20
2018-09-17T08:05:05.554Z,3.60
2018-09-17T08:06:05.496Z,3.90
2018-09-17T08:07:05.419Z,3.90
2018-09-17T08:08:05.410Z,4.60
2018-09-17T08:09:05.435Z,3.80
2018-09-17T08:10:05.645Z,3.40
2018-09-17T08:11:05.421Z,3.80
2018-09-17T08:12:05.370Z,3.40
2018-09-17T08:13:05.329Z,4.00
2018-09-17T08:14:05.315Z,3.90
2018-09-17T08:15:05.324Z,3.30
2018-09-17T08:16:05.313Z,3.20
2018-09-17T08:17:05.377Z,3.00
2018-09-17T08:18:05.290Z,3.40
2018-09-17T08:19:05.282Z,3.10
2018-09-17T08:20:05.298Z,3.00
2018-09-17T08:21:05.360Z,3.10
2018-09-17T08:22:05.243Z,3.40
2018-09-17T08:23:05.232Z,3.80
2018-09-17T08:24:05.215Z,3.50
2018-09-17T08:25:05.198Z,4.10
2018-09-17T08:26:05.181Z,3.90
2018-09-17T08:27:05.276Z,3.60
2018-09-17T08:28:05.160Z,3.50
2018-09-17T08:29:05.155Z,3.90
2018-09-17T08:30:05.135Z,3.10
2018-09-17T08:31:05.142Z,3.50
2018-09-17T08:32:05.374Z,3.60
2018-09-17T08:33:05.113Z,4.20
2018-09-17T08:34:05.092Z,3.90
2018-09-17T08:35:05.141Z,3.90
2018-09-17T08:36:05.078Z,4.30
2018-09-17T08:37:05.061Z,4.20
2018-09-17T08:43:04.980Z,4.00
2018-09-17T08:44:05.017Z,3.80
2018-09-17T08:45:04.977Z,3.30
2018-09-17T08:46:04.941Z,3.30
2018-09-17T08:47:04.994Z,2.30
2018-09-17T08:48:04.923Z,1.50
2018-09-17T08:49:04.924Z,1.50
2018-09-17T08:50:04.911Z,1.50
2018-09-17T08:51:04.906Z,1.20
2018-09-17T08:52:04.932Z,1.30
2018-09-17T08:53:04.876Z,1.10
2018-09-17T08:54:04.938Z,1.20
2018-09-17T08:55:04.857Z,1.00
2018-09-17T08:56:04.846Z,1.00
2018-09-17T08:57:04.822Z,1.00
2018-09-17T08:58:04.821Z,1.00
2018-09-17T08:59:04.807Z,1.00
2018-09-17T09:00:04.884Z,0.90
2018-09-17T09:01:04.803Z,0.70
2018-09-17T09:02:04.772Z,0.80
2018-09-17T09:03:04.764Z,0.80
2018-09-17T09:04:04.777Z,1.00
2018-09-17T09:05:04.789Z,1.00
2018-09-17T09:06:04.708Z,0.80
2018-09-17T09:07:04.750Z,0.80
2018-09-17T09:08:04.678Z,0.80
2018-09-17T09:09:04.670Z,1.00
2018-09-17T09:10:04.712Z,1.00
2018-09-17T09:11:04.650Z,0.80
2018-09-17T09:12:04.634Z,0.90
2018-09-17T09:13:04.632Z,0.90
2018-09-17T09:14:04.610Z,0.90
2018-09-17T09:15:04.608Z,0.80
2018-09-17T09:16:04.596Z,0.80
2018-09-17T09:17:04.565Z,0.80
2018-09-17T09:18:04.555Z,0.80
2018-09-17T09:19:04.550Z,0.90
2018-09-17T09:20:04.551Z,1.10
2018-09-17T09:21:04.785Z,0.80
2018-09-17T09:22:04.514Z,0.90
2018-09-17T09:23:04.517Z,0.90
2018-09-17T09:24:04.556Z,0.80
2018-09-17T09:25:04.493Z,0.90
2018-09-17T09:26:04.459Z,0.90
2018-09-17T09:27:04.459Z,0.80
2018-09-17T09:28:04.448Z,0.90
2018-09-17T09:29:04.442Z,0.80
2018-09-17T09:30:04.426Z,0.90
2018-09-17T09:31:04.406Z,0.90
2018-09-17T09:32:04.396Z,0.90
2018-09-17T09:33:04.397Z,0.90
2018-09-17T09:34:04.402Z,0.90
2018-09-17T09:35:04.368Z,0.80
2018-09-17T09:36:04.350Z,1.00
2018-09-17T09:37:04.348Z,1.00
2018-09-17T09:38:04.429Z,0.90
2018-09-17T09:39:04.321Z,0.70
2018-09-17T09:40:04.313Z,0.90
2018-09-17T09:41:04.302Z,1.00
2018-09-17T09:42:04.292Z,1.00
2018-09-17T09:43:04.257Z,1.00
2018-09-17T09:44:04.262Z,1.00
2018-09-17T09:45:04.320Z,1.00
2018-09-17T09:46:04.234Z,0.90
2018-09-17T09:47:04.327Z,0.90
2018-09-17T09:48:04.213Z,0.90
2018-09-17T09:49:04.194Z,1.10
2018-09-17T09:50:04.171Z,1.10
2018-09-17T09:51:04.181Z,1.00
2018-09-17T09:52:04.198Z,1.00
2018-09-17T09:53:04.251Z,1.00
2018-09-17T09:54:04.135Z,1.30
2018-09-17T09:55:04.151Z,1.40
2018-09-17T09:56:04.108Z,1.30
2018-09-17T09:57:04.092Z,1.40
2018-09-17T09:58:04.112Z,1.50
2018-09-17T09:59:04.099Z,1.50
2018-09-17T10:00:04.059Z,1.40
2018-09-17T10:01:04.074Z,1.40
2018-09-17T10:02:04.034Z,1.50
2018-09-17T10:03:04.020Z,1.50
2018-09-17T10:04:04.021Z,1.40
2018-09-17T10:05:04.006Z,1.20
2018-09-17T10:06:04.037Z,1.20
2018-09-17T10:07:04.031Z,1.50
2018-09-17T10:08:03.987Z,1.50
2018-09-17T10:09:03.954Z,1.50
2018-09-17T10:10:03.948Z,1.60
2018-09-17T10:11:03.950Z,1.80
2018-09-17T10:12:03.930Z,1.70
2018-09-17T10:13:03.905Z,1.70
2018-09-17T10:14:03.891Z,1.60
2018-09-17T10:15:03.869Z,1.70
2018-09-17T10:16:03.879Z,2.00
2018-09-17T10:17:03.869Z,2.00
2018-09-17T10:18:03.868Z,1.70
2018-09-17T10:19:04.111Z,2.10
2018-09-17T10:20:03.840Z,2.30
2018-09-17T10:21:03.839Z,2.50
2018-09-17T10:22:03.805Z,1.90
2018-09-17T10:23:03.795Z,1.40
2018-09-17T10:24:03.779Z,1.30
2018-09-17T10:25:03.756Z,1.50
2018-09-17T10:26:03.764Z,1.40
2018-09-17T10:27:03.745Z,1.50
2018-09-17T10:28:03.775Z,1.30
2018-09-17T10:29:03.750Z,1.50
2018-09-17T10:30:04.010Z,1.50
2018-09-17T10:31:03.713Z,1.20
2018-09-17T10:32:03.696Z,1.40
2018-09-17T10:33:03.675Z,1.30
2018-09-17T10:34:03.659Z,1.60
2018-09-17T10:35:03.662Z,1.50
2018-09-17T10:36:03.941Z,1.60
2018-09-17T10:37:03.631Z,1.50
2018-09-17T10:38:03.612Z,1.70
2018-09-17T10:39:03.641Z,1.70
2018-09-17T10:40:03.601Z,1.80
2018-09-17T10:41:03.701Z,1.80
2018-09-17T10:42:03.565Z,2.40
2018-09-17T10:43:03.608Z,2.20
2018-09-17T10:44:03.560Z,2.10
2018-09-17T10:45:03.558Z,2.00
2018-09-17T10:46:03.534Z,2.00
2018-09-17T10:47:03.618Z,1.70
2018-09-17T10:48:03.514Z,2.20
2018-09-17T10:49:03.504Z,2.30
2018-09-17T10:50:03.494Z,2.10
2018-09-17T10:51:03.460Z,1.90
2018-09-17T10:52:03.578Z,2.30
2018-09-17T10:53:03.490Z,2.30
2018-09-17T10:54:03.447Z,3.00
2018-09-17T10:55:03.446Z,3.20
2018-09-17T10:56:03.412Z,3.20
2018-09-17T10:57:03.407Z,3.70
2018-09-17T10:58:03.391Z,3.20
2018-09-17T10:59:03.428Z,3.40
2018-09-17T11:00:03.378Z,3.80
2018-09-17T11:01:03.365Z,3.70
2018-09-17T11:02:03.342Z,3.80
2018-09-17T11:03:03.455Z,3.00
2018-09-17T11:04:03.371Z,3.00
2018-09-17T11:05:03.333Z,3.80
2018-09-17T11:06:03.317Z,3.50
2018-09-17T11:07:03.292Z,4.30
2018-09-17T11:08:03.313Z,3.80
2018-09-17T11:09:03.271Z,4.20
2018-09-17T11:10:03.262Z,4.10
2018-09-17T11:11:03.274Z,4.10
2018-09-17T11:12:03.270Z,4.80
2018-09-17T11:13:03.226Z,4.80
2018-09-17T11:14:03.233Z,5.80
2018-09-17T11:15:03.218Z,5.80
2018-09-17T11:16:03.217Z,5.70
2018-09-17T11:17:03.183Z,6.30
2018-09-17T11:18:03.225Z,5.60
2018-09-17T11:19:03.161Z,6.00
2018-09-17T11:20:03.142Z,5.40
2018-09-17T11:21:03.168Z,5.40
2018-09-17T11:22:03.139Z,5.80
2018-09-17T11:23:03.114Z,6.70
2018-09-17T11:24:03.225Z,7.10
2018-09-17T11:25:03.174Z,8.50
2018-09-17T11:26:03.088Z,8.00
2018-09-17T11:27:03.095Z,7.80
2018-09-17T11:28:03.075Z,9.20
2018-09-17T11:29:03.082Z,9.50
2018-09-17T11:30:03.046Z,9.40
2018-09-17T11:31:03.087Z,9.50
2018-09-17T11:32:03.009Z,10.60
2018-09-17T11:33:03.027Z,11.10
2018-09-17T11:34:03.121Z,12.20
2018-09-17T11:35:02.999Z,11.80
2018-09-17T11:36:02.968Z,12.50
2018-09-17T11:37:02.989Z,11.60
2018-09-17T11:38:02.970Z,12.30
2018-09-17T11:39:02.969Z,12.70
2018-09-17T11:40:02.945Z,11.30
2018-09-17T11:41:02.962Z,12.20
2018-09-17T11:42:02.924Z,11.50
2018-09-17T11:43:02.930Z,11.40
2018-09-17T11:44:02.918Z,11.80
2018-09-17T11:45:02.892Z,12.00
2018-09-17T11:46:02.900Z,13.50
2018-09-17T11:47:02.920Z,13.60
2018-09-17T11:48:02.896Z,13.50
2018-09-17T11:49:02.873Z,13.20
2018-09-17T11:50:02.842Z,14.20
2018-09-17T11:51:02.841Z,13.50
2018-09-17T11:52:02.849Z,14.20
2018-09-17T11:53:02.814Z,13.90
2018-09-17T11:54:02.898Z,13.60
2018-09-17T11:55:02.836Z,13.10
2018-09-17T11:56:03.023Z,12.90
2018-09-17T11:57:02.761Z,12.40
2018-09-17T11:58:02.767Z,12.60
2018-09-17T11:59:02.775Z,12.30
2018-09-17T12:00:02.748Z,12.10
2018-09-17T12:01:02.760Z,12.60
2018-09-17T12:02:03.001Z,12.90
2018-09-17T12:03:02.700Z,13.90
2018-09-17T12:04:02.719Z,14.50
2018-09-17T12:05:02.678Z,14.60
2018-09-17T12:06:02.698Z,13.90
2018-09-17T12:07:02.652Z,13.90
2018-09-17T12:08:02.658Z,14.60
2018-09-17T12:09:02.645Z,15.40
2018-09-17T12:10:02.635Z,14.40
2018-09-17T12:11:02.627Z,14.30
2018-09-17T12:12:02.595Z,14.40
2018-09-17T12:13:02.755Z,14.30
2018-09-17T12:14:02.596Z,14.30
2018-09-17T12:15:02.568Z,13.60
2018-09-17T12:16:02.561Z,13.90
2018-09-17T12:17:02.568Z,14.70
2018-09-17T12:18:02.525Z,14.30
2018-09-17T12:19:02.523Z,15.70
2018-09-17T12:20:02.524Z,16.00
2018-09-17T12:21:02.567Z,15.20
2018-09-17T12:22:02.507Z,15.50
2018-09-17T12:23:02.478Z,17.40
2018-09-17T12:24:02.481Z,16.20
2018-09-17T12:25:02.497Z,14.90
2018-09-17T12:26:02.490Z,16.20
2018-09-17T12:27:02.445Z,16.50
2018-09-17T12:28:02.434Z,16.40
2018-09-17T12:29:02.421Z,17.10
2018-09-17T12:30:03.068Z,17.10
2018-09-17T12:31:02.456Z,17.20
2018-09-17T12:32:02.400Z,18.20
2018-09-17T12:33:02.368Z,17.10
2018-09-17T12:34:02.495Z,18.10
2018-09-17T12:35:02.368Z,18.70
2018-09-17T12:36:02.378Z,19.50
2018-09-17T12:37:02.347Z,18.90
2018-09-17T12:38:02.315Z,18.70
2018-09-17T12:39:04.536Z,19.30
2018-09-17T12:40:02.348Z,20.00
2018-09-17T12:41:02.288Z,20.00
2018-09-17T12:42:02.270Z,18.80
2018-09-17T12:43:02.286Z,18.00
2018-09-17T12:44:02.308Z,15.70
2018-09-17T12:45:02.251Z,15.40
2018-09-17T12:46:02.262Z,15.10
2018-09-17T12:47:02.223Z,15.80
2018-09-17T12:48:02.218Z,16.20
2018-09-17T12:49:02.207Z,15.60
2018-09-17T12:50:02.193Z,14.30
2018-09-17T12:51:02.235Z,13.90
2018-09-17T12:52:02.160Z,14.00
2018-09-17T12:53:02.152Z,13.80
2018-09-17T12:54:02.143Z,14.30
2018-09-17T12:55:02.133Z,13.30
2018-09-17T12:56:02.120Z,13.50
2018-09-17T12:57:02.131Z,13.90
2018-09-17T12:58:02.108Z,12.70
2018-09-17T12:59:02.080Z,12.10
2018-09-17T13:00:02.645Z,12.50
2018-09-17T13:01:02.076Z,12.00
2018-09-17T13:02:02.060Z,12.60
2018-09-17T13:03:02.033Z,14.00
2018-09-17T13:04:02.029Z,13.90
2018-09-17T13:05:02.005Z,13.50
2018-09-17T13:06:01.992Z,13.80
2018-09-17T13:07:02.002Z,13.30
2018-09-17T13:08:02.012Z,13.20
2018-09-17T13:09:01.996Z,11.90
2018-09-17T13:10:02.013Z,11.80
2018-09-17T13:11:02.302Z,10.80
2018-09-17T13:12:01.949Z,11.00
2018-09-17T13:13:01.943Z,11.10
2018-09-17T13:14:01.911Z,11.40
2018-09-17T13:15:01.899Z,11.60
2018-09-17T13:16:02.004Z,11.10
2018-09-17T13:17:01.930Z,9.30
2018-09-17T13:18:01.875Z,9.60
2018-09-17T13:19:01.868Z,10.00